sensor_id;sensor_type;location;lat;lon;timestamp;pressure;altitude;pressure_sealevel;temperature;humidity
42169;BME280;27838;43.858;25.974;2024-02-28T00:00:05;101583.13;;;10.99;53.19
42169;BME280;27838;43.858;25.974;2024-02-28T00:02:32;101577.91;;;11.01;53.06
42169;BME280;27838;43.858;25.974;2024-02-28T00:04:59;101578.81;;;11.03;53.57
42169;BME280;27838;43.858;25.974;2024-02-28T00:07:26;101584.78;;;10.95;53.53
42169;BME280;27838;43.858;25.974;2024-02-28T00:09:52;101583.94;;;10.95;53.59
42169;BME280;27838;43.858;25.974;2024-02-28T00:12:25;101585.69;;;10.96;53.93
42169;BME280;27838;43.858;25.974;2024-02-28T00:14:51;101583.06;;;10.94;53.90
42169;BME280;27838;43.858;25.974;2024-02-28T00:17:18;101582.19;;;10.94;54.35
42169;BME280;27838;43.858;25.974;2024-02-28T00:19:45;101583.06;;;10.94;54.56
42169;BME280;27838;43.858;25.974;2024-02-28T00:22:11;101579.59;;;10.97;54.43
42169;BME280;27838;43.858;25.974;2024-02-28T00:24:38;101582.28;;;11.02;54.45
42169;BME280;27838;43.858;25.974;2024-02-28T00:27:04;101582.28;;;11.02;54.40
42169;BME280;27838;43.858;25.974;2024-02-28T00:29:31;101578.81;;;11.01;54.18
42169;BME280;27838;43.858;25.974;2024-02-28T00:31:58;101585.72;;;10.98;54.41
42169;BME280;27838;43.858;25.974;2024-02-28T00:34:24;101586.53;;;10.95;54.24
42169;BME280;27838;43.858;25.974;2024-02-28T00:36:51;101585.66;;;10.93;54.46
42169;BME280;27838;43.858;25.974;2024-02-28T00:39:17;101580.34;;;10.87;54.34
42169;BME280;27838;43.858;25.974;2024-02-28T00:41:44;101576.88;;;10.88;54.18
42169;BME280;27838;43.858;25.974;2024-02-28T00:44:10;101572.53;;;10.85;54.06
42169;BME280;27838;43.858;25.974;2024-02-28T00:46:39;101584.66;;;10.82;54.45
42169;BME280;27838;43.858;25.974;2024-02-28T00:49:05;101583.81;;;10.84;53.90
42169;BME280;27838;43.858;25.974;2024-02-28T00:51:32;101586.38;;;10.83;54.23
42169;BME280;27838;43.858;25.974;2024-02-28T00:53:59;101589.00;;;10.83;54.00
42169;BME280;27838;43.858;25.974;2024-02-28T00:56:25;101583.72;;;10.80;54.26
42169;BME280;27838;43.858;25.974;2024-02-28T00:58:52;101580.19;;;10.74;54.37
42169;BME280;27838;43.858;25.974;2024-02-28T01:01:19;101582.72;;;10.68;54.16
42169;BME280;27838;43.858;25.974;2024-02-28T01:03:45;101581.88;;;10.68;54.54
42169;BME280;27838;43.858;25.974;2024-02-28T01:06:14;101574.88;;;10.67;54.33
42169;BME280;27838;43.858;25.974;2024-02-28T01:08:42;101567.81;;;10.58;54.36
42169;BME280;27838;43.858;25.974;2024-02-28T01:11:08;101566.06;;;10.57;54.63
42169;BME280;27838;43.858;25.974;2024-02-28T01:13:36;101567.81;;;10.58;54.60
42169;BME280;27838;43.858;25.974;2024-02-28T01:16:02;101566.94;;;10.57;54.51
42169;BME280;27838;43.858;25.974;2024-02-28T01:18:29;101553.78;;;10.50;54.67
42169;BME280;27838;43.858;25.974;2024-02-28T01:20:57;101568.66;;;10.54;54.72
42169;BME280;27838;43.858;25.974;2024-02-28T01:23:24;101567.69;;;10.49;54.54
42169;BME280;27838;43.858;25.974;2024-02-28T01:25:50;101565.00;;;10.43;54.63
42169;BME280;27838;43.858;25.974;2024-02-28T01:28:17;101573.72;;;10.43;54.44
42169;BME280;27838;43.858;25.974;2024-02-28T01:30:43;101577.09;;;10.37;54.70
42169;BME280;27838;43.858;25.974;2024-02-28T01:33:10;101570.13;;;10.35;54.40
42169;BME280;27838;43.858;25.974;2024-02-28T01:35:37;101577.03;;;10.33;54.75
42169;BME280;27838;43.858;25.974;2024-02-28T01:38:04;101581.03;;;10.12;54.94
42169;BME280;27838;43.858;25.974;2024-02-28T01:40:30;101578.31;;;10.06;54.85
42169;BME280;27838;43.858;25.974;2024-02-28T01:43:06;101577.38;;;9.99;54.77
42169;BME280;27838;43.858;25.974;2024-02-28T01:45:33;101575.53;;;9.95;55.42
42169;BME280;27838;43.858;25.974;2024-02-28T01:48:00;101583.31;;;9.91;55.30
42169;BME280;27838;43.858;25.974;2024-02-28T01:50:27;101581.47;;;9.87;55.67
42169;BME280;27838;43.858;25.974;2024-02-28T01:52:53;101585.69;;;9.80;55.83
42169;BME280;27838;43.858;25.974;2024-02-28T01:55:20;101584.03;;;9.82;56.06
42169;BME280;27838;43.858;25.974;2024-02-28T01:57:47;101589.19;;;9.79;55.89
42169;BME280;27838;43.858;25.974;2024-02-28T02:00:15;101586.53;;;9.77;55.69
42169;BME280;27838;43.858;25.974;2024-02-28T02:02:43;101604.00;;;9.85;55.51
42169;BME280;27838;43.858;25.974;2024-02-28T02:05:09;101587.47;;;9.81;55.55
42169;BME280;27838;43.858;25.974;2024-02-28T02:07:36;101596.31;;;9.92;55.24
42169;BME280;27838;43.858;25.974;2024-02-28T02:10:03;101597.22;;;9.93;55.46
42169;BME280;27838;43.858;25.974;2024-02-28T02:12:33;101579.72;;;9.84;56.03
42169;BME280;27838;43.858;25.974;2024-02-28T02:15:00;101598.91;;;9.92;55.47
42169;BME280;27838;43.858;25.974;2024-02-28T02:17:26;101595.31;;;9.82;55.28
42169;BME280;27838;43.858;25.974;2024-02-28T02:19:53;101598.69;;;9.77;56.20
42169;BME280;27838;43.858;25.974;2024-02-28T02:22:20;101599.44;;;9.71;56.04
42169;BME280;27838;43.858;25.974;2024-02-28T02:24:47;101601.16;;;9.71;56.45
42169;BME280;27838;43.858;25.974;2024-02-28T02:27:14;101594.09;;;9.63;56.66
42169;BME280;27838;43.858;25.974;2024-02-28T02:29:40;101601.94;;;9.65;56.74
42169;BME280;27838;43.858;25.974;2024-02-28T02:32:07;101597.53;;;9.62;56.48
42169;BME280;27838;43.858;25.974;2024-02-28T02:34:33;101596.66;;;9.60;56.59
42169;BME280;27838;43.858;25.974;2024-02-28T02:37:00;101610.53;;;9.61;56.49
42169;BME280;27838;43.858;25.974;2024-02-28T02:39:27;101612.25;;;9.60;56.27
42169;BME280;27838;43.858;25.974;2024-02-28T02:41:53;101604.38;;;9.54;56.44
42169;BME280;27838;43.858;25.974;2024-02-28T02:44:20;101615.63;;;9.55;56.57
42169;BME280;27838;43.858;25.974;2024-02-28T02:46:46;101613.91;;;9.55;56.43
42169;BME280;27838;43.858;25.974;2024-02-28T02:49:13;101614.63;;;9.48;56.42
42169;BME280;27838;43.858;25.974;2024-02-28T02:51:39;101625.94;;;9.50;56.69
42169;BME280;27838;43.858;25.974;2024-02-28T02:54:07;101625.75;;;9.39;56.87
42169;BME280;27838;43.858;25.974;2024-02-28T02:56:34;101629.13;;;9.34;56.72
42169;BME280;27838;43.858;25.974;2024-02-28T02:59:00;101631.78;;;9.37;56.43
42169;BME280;27838;43.858;25.974;2024-02-28T03:01:27;101635.25;;;9.37;56.50
42169;BME280;27838;43.858;25.974;2024-02-28T03:03:53;101633.56;;;9.39;56.92
42169;BME280;27838;43.858;25.974;2024-02-28T03:06:20;101635.22;;;9.36;56.83
42169;BME280;27838;43.858;25.974;2024-02-28T03:08:49;101636.78;;;9.27;57.05
42169;BME280;27838;43.858;25.974;2024-02-28T03:11:15;101637.69;;;9.28;57.09
42169;BME280;27838;43.858;25.974;2024-02-28T03:13:42;101641.97;;;9.24;57.04
42169;BME280;27838;43.858;25.974;2024-02-28T03:16:08;101646.31;;;9.27;56.74
42169;BME280;27838;43.858;25.974;2024-02-28T03:18:35;101638.50;;;9.25;56.61
42169;BME280;27838;43.858;25.974;2024-02-28T03:21:03;101645.50;;;9.28;56.52
42169;BME280;27838;43.858;25.974;2024-02-28T03:23:29;101650.59;;;9.23;56.46
42169;BME280;27838;43.858;25.974;2024-02-28T03:25:56;101660.84;;;9.16;56.64
42169;BME280;27838;43.858;25.974;2024-02-28T03:28:22;101655.53;;;9.11;56.55
42169;BME280;27838;43.858;25.974;2024-02-28T03:30:49;101660.69;;;9.08;56.82
42169;BME280;27838;43.858;25.974;2024-02-28T03:33:16;101659.72;;;9.04;56.61
42169;BME280;27838;43.858;25.974;2024-02-28T03:35:42;101662.38;;;9.06;56.15
42169;BME280;27838;43.858;25.974;2024-02-28T03:38:09;101669.19;;;9.01;56.39
42169;BME280;27838;43.858;25.974;2024-02-28T03:40:35;101664.88;;;9.01;56.87
42169;BME280;27838;43.858;25.974;2024-02-28T03:43:02;101669.13;;;8.98;56.29
42169;BME280;27838;43.858;25.974;2024-02-28T03:45:28;101674.41;;;9.01;56.48
42169;BME280;27838;43.858;25.974;2024-02-28T03:47:55;101667.31;;;8.94;56.51
42169;BME280;27838;43.858;25.974;2024-02-28T03:50:22;101667.25;;;8.91;56.76
42169;BME280;27838;43.858;25.974;2024-02-28T03:52:49;101684.41;;;8.84;57.84
42169;BME280;27838;43.858;25.974;2024-02-28T03:55:15;101673.78;;;8.73;56.83
42169;BME280;27838;43.858;25.974;2024-02-28T03:57:42;101683.31;;;8.73;57.33
42169;BME280;27838;43.858;25.974;2024-02-28T04:00:10;101687.56;;;8.69;57.98
42169;BME280;27838;43.858;25.974;2024-02-28T04:02:36;101689.16;;;8.64;57.93
42169;BME280;27838;43.858;25.974;2024-02-28T04:05:03;101695.09;;;8.58;57.85
42169;BME280;27838;43.858;25.974;2024-02-28T04:07:30;101690.63;;;8.53;58.59
42169;BME280;27838;43.858;25.974;2024-02-28T04:09:56;101699.84;;;8.41;58.78
42169;BME280;27838;43.858;25.974;2024-02-28T04:12:23;101698.94;;;8.39;58.76
42169;BME280;27838;43.858;25.974;2024-02-28T04:14:49;101693.38;;;8.24;58.85
42169;BME280;27838;43.858;25.974;2024-02-28T04:17:16;101692.28;;;8.16;59.31
42169;BME280;27838;43.858;25.974;2024-02-28T04:19:43;101688.59;;;8.06;59.84
42169;BME280;27838;43.858;25.974;2024-02-28T04:22:09;101687.63;;;8.02;59.53
42169;BME280;27838;43.858;25.974;2024-02-28T04:24:36;101692.00;;;8.05;59.60
42169;BME280;27838;43.858;25.974;2024-02-28T04:27:02;101702.53;;;8.09;59.69
42169;BME280;27838;43.858;25.974;2024-02-28T04:29:30;101706.81;;;8.07;59.85
42169;BME280;27838;43.858;25.974;2024-02-28T04:31:57;101712.03;;;8.09;60.58
42169;BME280;27838;43.858;25.974;2024-02-28T04:34:24;101705.81;;;8.02;60.47
42169;BME280;27838;43.858;25.974;2024-02-28T04:36:50;101711.84;;;8.01;60.97
42169;BME280;27838;43.858;25.974;2024-02-28T04:39:17;101699.53;;;7.94;61.00
42169;BME280;27838;43.858;25.974;2024-02-28T04:41:43;101697.69;;;7.90;60.24
42169;BME280;27838;43.858;25.974;2024-02-28T04:44:10;101715.88;;;7.90;60.59
42169;BME280;27838;43.858;25.974;2024-02-28T04:46:37;101713.09;;;7.84;60.80
42169;BME280;27838;43.858;25.974;2024-02-28T04:49:04;101719.09;;;7.81;60.82
42169;BME280;27838;43.858;25.974;2024-02-28T04:51:30;101719.88;;;7.79;60.70
42169;BME280;27838;43.858;25.974;2024-02-28T04:53:57;101726.84;;;7.80;60.49
42169;BME280;27838;43.858;25.974;2024-02-28T04:56:23;101717.31;;;7.80;61.24
42169;BME280;27838;43.858;25.974;2024-02-28T04:58:50;101732.03;;;7.80;61.17
42169;BME280;27838;43.858;25.974;2024-02-28T05:01:17;101728.28;;;7.70;61.13
42169;BME280;27838;43.858;25.974;2024-02-28T05:03:43;101724.72;;;7.66;60.99
42169;BME280;27838;43.858;25.974;2024-02-28T05:06:10;101722.91;;;7.62;61.54
42169;BME280;27838;43.858;25.974;2024-02-28T05:08:37;101729.88;;;7.65;62.27
42169;BME280;27838;43.858;25.974;2024-02-28T05:11:04;101737.72;;;7.66;62.74
42169;BME280;27838;43.858;25.974;2024-02-28T05:13:31;101724.63;;;7.63;62.49
42169;BME280;27838;43.858;25.974;2024-02-28T05:15:57;101743.16;;;7.75;62.98
42169;BME280;27838;43.858;25.974;2024-02-28T05:18:24;101740.50;;;7.72;62.32
42169;BME280;27838;43.858;25.974;2024-02-28T05:20:50;101744.16;;;7.81;62.33
42169;BME280;27838;43.858;25.974;2024-02-28T05:23:17;101741.78;;;7.88;61.48
42169;BME280;27838;43.858;25.974;2024-02-28T05:25:44;101740.81;;;7.85;62.16
42169;BME280;27838;43.858;25.974;2024-02-28T05:28:10;101745.22;;;7.87;62.07
42169;BME280;27838;43.858;25.974;2024-02-28T05:30:37;101747.03;;;7.90;62.11
42169;BME280;27838;43.858;25.974;2024-02-28T05:33:03;101753.88;;;7.88;62.45
42169;BME280;27838;43.858;25.974;2024-02-28T05:35:30;101752.00;;;7.82;62.32
42169;BME280;27838;43.858;25.974;2024-02-28T05:37:57;101755.44;;;7.81;62.33
42169;BME280;27838;43.858;25.974;2024-02-28T05:40:23;101758.91;;;7.82;63.48
42169;BME280;27838;43.858;25.974;2024-02-28T05:42:50;101758.03;;;7.83;62.66
42169;BME280;27838;43.858;25.974;2024-02-28T05:45:16;101752.91;;;7.84;63.11
42169;BME280;27838;43.858;25.974;2024-02-28T05:47:43;101756.06;;;7.72;64.07
42169;BME280;27838;43.858;25.974;2024-02-28T05:50:09;101761.06;;;7.66;63.28
42169;BME280;27838;43.858;25.974;2024-02-28T05:52:36;101761.16;;;7.69;63.77
42169;BME280;27838;43.858;25.974;2024-02-28T05:55:03;101763.81;;;7.71;64.24
42169;BME280;27838;43.858;25.974;2024-02-28T05:57:29;101771.78;;;7.79;64.76
42169;BME280;27838;43.858;25.974;2024-02-28T05:59:56;101770.09;;;7.81;63.71
42169;BME280;27838;43.858;25.974;2024-02-28T06:02:23;101767.31;;;7.73;64.41
42169;BME280;27838;43.858;25.974;2024-02-28T06:04:49;101765.78;;;7.80;64.44
42169;BME280;27838;43.858;25.974;2024-02-28T06:07:16;101768.47;;;7.84;64.61
42169;BME280;27838;43.858;25.974;2024-02-28T06:09:42;101773.81;;;7.89;64.26
42169;BME280;27838;43.858;25.974;2024-02-28T06:12:09;101759.06;;;7.88;64.87
42169;BME280;27838;43.858;25.974;2024-02-28T06:14:35;101777.66;;;8.03;63.88
42169;BME280;27838;43.858;25.974;2024-02-28T06:17:02;101783.75;;;8.04;64.37
42169;BME280;27838;43.858;25.974;2024-02-28T06:19:29;101788.13;;;8.06;65.06
42169;BME280;27838;43.858;25.974;2024-02-28T06:21:55;101786.59;;;8.13;64.56
42169;BME280;27838;43.858;25.974;2024-02-28T06:24:22;101784.00;;;8.13;65.18
42169;BME280;27838;43.858;25.974;2024-02-28T06:26:48;101780.63;;;8.17;64.88
42169;BME280;27838;43.858;25.974;2024-02-28T06:29:15;101785.09;;;8.23;65.03
42169;BME280;27838;43.858;25.974;2024-02-28T06:31:42;101788.78;;;8.31;64.59
42169;BME280;27838;43.858;25.974;2024-02-28T06:34:08;101779.22;;;8.28;65.07
42169;BME280;27838;43.858;25.974;2024-02-28T06:36:36;101797.66;;;8.39;64.63
42169;BME280;27838;43.858;25.974;2024-02-28T06:39:02;101799.28;;;8.34;64.61
42169;BME280;27838;43.858;25.974;2024-02-28T06:41:29;101796.06;;;8.43;64.89
42169;BME280;27838;43.858;25.974;2024-02-28T06:43:56;101791.91;;;8.49;64.85
42169;BME280;27838;43.858;25.974;2024-02-28T06:46:22;101789.38;;;8.53;64.68
42169;BME280;27838;43.858;25.974;2024-02-28T06:48:49;101802.69;;;8.65;64.43
42169;BME280;27838;43.858;25.974;2024-02-28T06:51:18;101805.22;;;8.62;65.05
42169;BME280;27838;43.858;25.974;2024-02-28T06:53:45;101801.75;;;8.63;64.09
42169;BME280;27838;43.858;25.974;2024-02-28T06:56:11;101813.78;;;8.59;64.27
42169;BME280;27838;43.858;25.974;2024-02-28T06:58:38;101818.16;;;8.60;64.93
42169;BME280;27838;43.858;25.974;2024-02-28T07:01:04;101805.22;;;8.62;65.16
42169;BME280;27838;43.858;25.974;2024-02-28T07:03:31;101819.91;;;8.61;64.64
42169;BME280;27838;43.858;25.974;2024-02-28T07:05:57;101810.41;;;8.62;64.86
42169;BME280;27838;43.858;25.974;2024-02-28T07:08:24;101825.09;;;8.61;64.63
42169;BME280;27838;43.858;25.974;2024-02-28T07:10:51;101824.47;;;8.70;64.76
42169;BME280;27838;43.858;25.974;2024-02-28T07:13:19;101823.50;;;8.65;63.78
42169;BME280;27838;43.858;25.974;2024-02-28T07:15:47;101810.50;;;8.65;63.67
42169;BME280;27838;43.858;25.974;2024-02-28T07:18:14;101814.78;;;8.64;64.39
42169;BME280;27838;43.858;25.974;2024-02-28T07:20:41;101820.53;;;8.53;63.77
42169;BME280;27838;43.858;25.974;2024-02-28T07:23:07;101811.00;;;8.52;63.62
42169;BME280;27838;43.858;25.974;2024-02-28T07:25:34;101817.03;;;8.50;64.41
42169;BME280;27838;43.858;25.974;2024-02-28T07:28:00;101810.94;;;8.48;64.05
42169;BME280;27838;43.858;25.974;2024-02-28T07:30:27;101814.69;;;8.60;64.45
42169;BME280;27838;43.858;25.974;2024-02-28T07:32:54;101819.22;;;8.67;64.89
42169;BME280;27838;43.858;25.974;2024-02-28T07:35:21;101805.34;;;8.68;64.45
42169;BME280;27838;43.858;25.974;2024-02-28T07:37:50;101807.00;;;8.64;64.17
42169;BME280;27838;43.858;25.974;2024-02-28T07:40:17;101812.19;;;8.64;63.95
42169;BME280;27838;43.858;25.974;2024-02-28T07:42:43;101817.34;;;8.63;64.10
42169;BME280;27838;43.858;25.974;2024-02-28T07:45:10;101816.59;;;8.67;63.67
42169;BME280;27838;43.858;25.974;2024-02-28T07:47:37;101820.16;;;8.71;63.23
42169;BME280;27838;43.858;25.974;2024-02-28T07:50:04;101824.66;;;8.78;62.76
42169;BME280;27838;43.858;25.974;2024-02-28T07:52:31;101819.47;;;8.78;62.76
42169;BME280;27838;43.858;25.974;2024-02-28T07:55:00;101816.81;;;8.76;62.69
42169;BME280;27838;43.858;25.974;2024-02-28T07:57:27;101809.00;;;8.75;63.17
42169;BME280;27838;43.858;25.974;2024-02-28T07:59:54;101812.47;;;8.75;62.99
42169;BME280;27838;43.858;25.974;2024-02-28T08:02:21;101814.22;;;8.76;63.28
42169;BME280;27838;43.858;25.974;2024-02-28T08:04:47;101810.81;;;8.77;62.99
42169;BME280;27838;43.858;25.974;2024-02-28T08:07:15;101816.25;;;8.88;63.15
42169;BME280;27838;43.858;25.974;2024-02-28T08:09:42;101804.66;;;8.75;63.53
42169;BME280;27838;43.858;25.974;2024-02-28T08:12:09;101814.53;;;8.88;63.03
42169;BME280;27838;43.858;25.974;2024-02-28T08:14:35;101807.63;;;8.91;63.64
42169;BME280;27838;43.858;25.974;2024-02-28T08:17:02;101800.06;;;9.00;62.89
42169;BME280;27838;43.858;25.974;2024-02-28T08:19:28;101807.09;;;9.04;63.34
42169;BME280;27838;43.858;25.974;2024-02-28T08:21:55;101806.19;;;9.02;63.11
42169;BME280;27838;43.858;25.974;2024-02-28T08:24:21;101814.97;;;9.07;63.82
42169;BME280;27838;43.858;25.974;2024-02-28T08:26:48;101811.69;;;9.14;63.52
42169;BME280;27838;43.858;25.974;2024-02-28T08:29:14;101798.53;;;9.08;64.17
42169;BME280;27838;43.858;25.974;2024-02-28T08:31:42;101806.47;;;9.14;63.60
42169;BME280;27838;43.858;25.974;2024-02-28T08:34:09;101800.53;;;9.20;63.84
42169;BME280;27838;43.858;25.974;2024-02-28T08:36:36;101812.00;;;9.28;64.11
42169;BME280;27838;43.858;25.974;2024-02-28T08:39:02;101816.44;;;9.34;63.92
42169;BME280;27838;43.858;25.974;2024-02-28T08:41:33;101815.59;;;9.35;64.09
42169;BME280;27838;43.858;25.974;2024-02-28T08:43:59;101813.84;;;9.34;64.02
42169;BME280;27838;43.858;25.974;2024-02-28T08:46:26;101807.03;;;9.39;64.29
42169;BME280;27838;43.858;25.974;2024-02-28T08:48:53;101809.63;;;9.39;64.70
42169;BME280;27838;43.858;25.974;2024-02-28T08:51:19;101812.28;;;9.40;65.08
42169;BME280;27838;43.858;25.974;2024-02-28T08:53:46;101810.53;;;9.41;64.36
42169;BME280;27838;43.858;25.974;2024-02-28T08:56:13;101822.09;;;9.54;64.64
42169;BME280;27838;43.858;25.974;2024-02-28T08:58:39;101818.81;;;9.62;64.49
42169;BME280;27838;43.858;25.974;2024-02-28T09:01:06;101818.84;;;9.64;64.52
42169;BME280;27838;43.858;25.974;2024-02-28T09:03:32;101824.09;;;9.66;64.83
42169;BME280;27838;43.858;25.974;2024-02-28T09:05:59;101816.34;;;9.69;64.64
42169;BME280;27838;43.858;25.974;2024-02-28T09:08:26;101818.22;;;9.76;64.52
42169;BME280;27838;43.858;25.974;2024-02-28T09:10:52;101808.75;;;9.79;64.87
42169;BME280;27838;43.858;25.974;2024-02-28T09:13:19;101804.47;;;9.83;64.81
42169;BME280;27838;43.858;25.974;2024-02-28T09:15:45;101810.63;;;9.87;64.93
42169;BME280;27838;43.858;25.974;2024-02-28T09:18:12;101809.09;;;9.96;64.88
42169;BME280;27838;43.858;25.974;2024-02-28T09:20:38;101804.91;;;10.05;65.01
42169;BME280;27838;43.858;25.974;2024-02-28T09:23:05;101812.88;;;10.12;64.82
42169;BME280;27838;43.858;25.974;2024-02-28T09:25:32;101806.94;;;10.19;64.98
42169;BME280;27838;43.858;25.974;2024-02-28T09:28:01;101807.13;;;10.30;64.67
42169;BME280;27838;43.858;25.974;2024-02-28T09:30:28;101809.94;;;10.38;64.58
42169;BME280;27838;43.858;25.974;2024-02-28T09:32:54;101825.72;;;10.47;64.25
42169;BME280;27838;43.858;25.974;2024-02-28T09:35:21;101825.00;;;10.56;64.26
42169;BME280;27838;43.858;25.974;2024-02-28T09:37:47;101819.06;;;10.65;64.13
42169;BME280;27838;43.858;25.974;2024-02-28T09:40:14;101817.44;;;10.70;63.94
42169;BME280;27838;43.858;25.974;2024-02-28T09:42:41;101831.47;;;10.76;64.18
42169;BME280;27838;43.858;25.974;2024-02-28T09:45:11;101830.66;;;10.81;64.02
42169;BME280;27838;43.858;25.974;2024-02-28T09:47:39;101825.50;;;10.87;63.90
42169;BME280;27838;43.858;25.974;2024-02-28T09:50:07;101830.09;;;11.00;63.41
42169;BME280;27838;43.858;25.974;2024-02-28T09:52:34;101820.72;;;11.11;63.49
42169;BME280;27838;43.858;25.974;2024-02-28T09:55:01;101819.13;;;11.23;63.05
42169;BME280;27838;43.858;25.974;2024-02-28T09:57:28;101819.31;;;11.35;62.50
42169;BME280;27838;43.858;25.974;2024-02-28T09:59:57;101804.47;;;11.31;62.43
42169;BME280;27838;43.858;25.974;2024-02-28T10:02:26;101812.50;;;11.45;61.98
42169;BME280;27838;43.858;25.974;2024-02-28T10:04:55;101813.53;;;11.58;61.83
42169;BME280;27838;43.858;25.974;2024-02-28T10:07:22;101799.81;;;11.73;61.77
42169;BME280;27838;43.858;25.974;2024-02-28T10:09:50;101798.19;;;11.85;61.57
42169;BME280;27838;43.858;25.974;2024-02-28T10:12:17;101800.88;;;11.90;60.94
42169;BME280;27838;43.858;25.974;2024-02-28T10:14:44;101793.88;;;11.89;61.01
42169;BME280;27838;43.858;25.974;2024-02-28T10:17:11;101781.84;;;11.99;60.86
42169;BME280;27838;43.858;25.974;2024-02-28T10:19:37;101785.41;;;12.07;60.44
42169;BME280;27838;43.858;25.974;2024-02-28T10:22:04;101783.72;;;12.12;61.35
42169;BME280;27838;43.858;25.974;2024-02-28T10:24:33;101782.91;;;12.16;60.36
42169;BME280;27838;43.858;25.974;2024-02-28T10:27:01;101776.00;;;12.24;60.81
42169;BME280;27838;43.858;25.974;2024-02-28T10:29:28;101776.88;;;12.23;60.36
42169;BME280;27838;43.858;25.974;2024-02-28T10:31:58;101771.53;;;12.11;60.96
42169;BME280;27838;43.858;25.974;2024-02-28T10:34:25;101764.59;;;12.15;60.92
42169;BME280;27838;43.858;25.974;2024-02-28T10:36:52;101765.69;;;12.40;59.87
42169;BME280;27838;43.858;25.974;2024-02-28T10:39:19;101769.22;;;12.45;59.74
42169;BME280;27838;43.858;25.974;2024-02-28T10:41:48;101760.47;;;12.40;61.31
42169;BME280;27838;43.858;25.974;2024-02-28T10:44:16;101752.81;;;12.64;60.15
42169;BME280;27838;43.858;25.974;2024-02-28T10:46:44;101752.28;;;13.07;59.17
42169;BME280;27838;43.858;25.974;2024-02-28T10:49:10;101742.81;;;13.32;58.41
42169;BME280;27838;43.858;25.974;2024-02-28T10:51:38;101735.06;;;13.49;57.18
42169;BME280;27838;43.858;25.974;2024-02-28T10:54:10;101737.72;;;13.69;56.44
42169;BME280;27838;43.858;25.974;2024-02-28T10:56:37;101722.06;;;13.83;56.25
42169;BME280;27838;43.858;25.974;2024-02-28T10:59:09;101717.72;;;14.10;55.33
42169;BME280;27838;43.858;25.974;2024-02-28T11:01:36;101723.88;;;14.29;54.81
42169;BME280;27838;43.858;25.974;2024-02-28T11:04:04;101719.50;;;14.39;54.12
42169;BME280;27838;43.858;25.974;2024-02-28T11:06:31;101715.13;;;14.41;53.81
42169;BME280;27838;43.858;25.974;2024-02-28T11:09:03;101714.25;;;14.52;53.14
42169;BME280;27838;43.858;25.974;2024-02-28T11:11:30;101707.28;;;14.73;52.35
42169;BME280;27838;43.858;25.974;2024-02-28T11:13:58;101709.91;;;14.67;52.82
42169;BME280;27838;43.858;25.974;2024-02-28T11:16:32;101702.91;;;14.73;52.56
42169;BME280;27838;43.858;25.974;2024-02-28T11:19:00;101702.00;;;14.81;53.02
42169;BME280;27838;43.858;25.974;2024-02-28T11:21:29;101693.22;;;15.00;52.31
42169;BME280;27838;43.858;25.974;2024-02-28T11:24:00;101694.03;;;15.16;51.53
42169;BME280;27838;43.858;25.974;2024-02-28T11:26:27;101692.25;;;15.27;51.19
42169;BME280;27838;43.858;25.974;2024-02-28T11:28:57;101692.19;;;15.37;51.39
42169;BME280;27838;43.858;25.974;2024-02-28T11:31:23;101689.56;;;15.35;50.99
42169;BME280;27838;43.858;25.974;2024-02-28T11:33:50;101684.38;;;15.20;51.00
42169;BME280;27838;43.858;25.974;2024-02-28T11:36:16;101689.63;;;15.23;50.82
42169;BME280;27838;43.858;25.974;2024-02-28T11:38:44;101686.09;;;15.27;51.24
42169;BME280;27838;43.858;25.974;2024-02-28T11:41:11;101686.22;;;14.99;51.52
42169;BME280;27838;43.858;25.974;2024-02-28T11:43:38;101680.16;;;14.77;52.93
42169;BME280;27838;43.858;25.974;2024-02-28T11:46:10;101667.88;;;14.76;52.53
42169;BME280;27838;43.858;25.974;2024-02-28T11:48:37;101674.00;;;14.89;52.92
42169;BME280;27838;43.858;25.974;2024-02-28T11:51:04;101666.09;;;14.98;52.14
42169;BME280;27838;43.858;25.974;2024-02-28T11:53:30;101663.47;;;15.01;52.17
42169;BME280;27838;43.858;25.974;2024-02-28T11:55:57;101662.56;;;15.10;52.81
42169;BME280;27838;43.858;25.974;2024-02-28T11:58:23;101657.25;;;15.19;52.08
42169;BME280;27838;43.858;25.974;2024-02-28T12:00:51;101659.88;;;15.22;51.81
42169;BME280;27838;43.858;25.974;2024-02-28T12:03:21;101654.56;;;15.32;51.49
42169;BME280;27838;43.858;25.974;2024-02-28T12:05:48;101653.66;;;15.39;51.27
42169;BME280;27838;43.858;25.974;2024-02-28T12:08:17;101644.88;;;15.46;51.38
42169;BME280;27838;43.858;25.974;2024-02-28T12:10:44;101643.06;;;15.54;51.18
42169;BME280;27838;43.858;25.974;2024-02-28T12:13:11;101642.13;;;15.66;50.90
42169;BME280;27838;43.858;25.974;2024-02-28T12:15:41;101643.84;;;15.73;50.85
42169;BME280;27838;43.858;25.974;2024-02-28T12:18:08;101641.22;;;15.76;50.95
42169;BME280;27838;43.858;25.974;2024-02-28T12:20:36;101641.16;;;15.81;50.94
42169;BME280;27838;43.858;25.974;2024-02-28T12:23:04;101642.03;;;15.84;50.93
42169;BME280;27838;43.858;25.974;2024-02-28T12:25:31;101635.88;;;15.89;50.34
42169;BME280;27838;43.858;25.974;2024-02-28T12:28:00;101631.50;;;15.83;50.68
42169;BME280;27838;43.858;25.974;2024-02-28T12:30:26;101629.84;;;15.68;51.41
42169;BME280;27838;43.858;25.974;2024-02-28T12:32:53;101627.25;;;15.63;51.09
42169;BME280;27838;43.858;25.974;2024-02-28T12:35:19;101618.50;;;15.63;51.57
42169;BME280;27838;43.858;25.974;2024-02-28T12:37:46;101606.25;;;15.60;51.55
42169;BME280;27838;43.858;25.974;2024-02-28T12:40:13;101623.66;;;15.80;51.65
42169;BME280;27838;43.858;25.974;2024-02-28T12:42:41;101612.16;;;15.92;50.95